Austin Reinauer — WCX8055 — position and weather

sailwx.info

Track history (hours):
 
Tides and Currents Weather Stations Pressure Air Temp Water Temp Dewpoint Dewpoint Depression Visibility Wind Speed Wind Dir Waves Ship Positions

Austin Reinauer

Owner: REINAUER TRANSPORTATION CO, LP, STATEN ISLAND, NY. More information available from US FCC via Universal Licensing System and Coast Guard Vessel Documentation Center.

Last reported at 2016-Jul-24 16:33 UTC. Time now 2016-Jul-25 00:20 UTC.
Position N 40°44' W 073°58'.

Length 33 m; draft 6.7 m.

Type: . MMSI: 366739920.

Date/timePositionNaut miles runAvg speedWind from/ knotsBaromVisibWave heightAir tempDewpointWater temp
2016-Jul-24 16:33N 40°44' W 073°58'6 6.2
2016-Jul-24 15:33N 40°39' W 074°03'4 3.7
2016-Jul-24 14:32N 40°39' W 074°08'4 0.2
2016-Jul-23 18:31N 40°37' W 074°12'7 7.7
2016-Jul-23 17:34N 40°40' W 074°03'9 9.1
2016-Jul-23 16:32N 40°47' W 073°56'5 0.1
2016-Jul-21 23:06N 40°48' W 073°49'5 9.3
2016-Jul-21 22:32N 40°47' W 073°56'7 7.5
2016-Jul-21 21:33N 40°41' W 074°02'2 2.4
2016-Jul-21 20:33N 40°39' W 074°03'0 0.0
2016-Jul-21 19:33N 40°39' W 074°03'7 6.6
2016-Jul-21 18:33N 40°32' W 074°01'27 7.9
2016-Jul-21 15:09N 40°06' W 073°55'6 9.6
2016-Jul-21 14:33N 39°60' W 073°55'10 9.7
2016-Jul-21 13:33N 39°50' W 073°57'10 9.8
2016-Jul-21 12:33N 39°41' W 074°01'10 9.7
2016-Jul-21 11:34N 39°32' W 074°06'10 9.7
2016-Jul-21 10:33N 39°24' W 074°12'9 9.2
2016-Jul-21 09:33N 39°17' W 074°20'10 9.5
2016-Jul-21 08:33N 39°10' W 074°28'9 9.3
2016-Jul-21 07:33N 39°03' W 074°36'9 9.1
2016-Jul-21 06:33N 38°56' W 074°44'16 7.9
2016-Jul-21 04:33N 38°51' W 075°04'10 9.9
2016-Jul-21 03:33N 39°00' W 075°09'9 8.5
2016-Jul-21 02:33N 39°08' W 075°14'7 7.3
2016-Jul-21 01:34N 39°14' W 075°19'7 7.3
2016-Jul-21 00:33N 39°20' W 075°25'9 8.6
2016-Jul-20 23:33N 39°26' W 075°32'10 9.8
2016-Jul-20 22:33N 39°36' W 075°34'1010.4
2016-Jul-20 21:33N 39°46' W 075°29'1010.4
2016-Jul-20 20:33N 39°51' W 075°17'6 6.5
2016-Jul-20 19:33N 39°53' W 075°09'0 0.0
2016-Jul-20 18:33N 39°53' W 075°09'0 0.0
2016-Jul-20 17:33N 39°53' W 075°09'0 0.0
2016-Jul-20 16:33N 39°53' W 075°09'0 0.0
2016-Jul-20 15:33N 39°53' W 075°09'0 0.0
2016-Jul-20 14:33N 39°53' W 075°09'0 0.0
2016-Jul-20 13:33N 39°53' W 075°09'0 0.0
2016-Jul-20 12:33N 39°53' W 075°09'0 0.0
2016-Jul-20 11:33N 39°53' W 075°09'0 0.0
2016-Jul-20 10:33N 39°53' W 075°09'0 0.0
2016-Jul-20 09:34N 39°53' W 075°09'0 0.0
2016-Jul-20 08:33N 39°53' W 075°09'0 0.0
2016-Jul-20 07:33N 39°53' W 075°09'0 0.0
2016-Jul-20 06:34N 39°53' W 075°09'0 0.0
2016-Jul-20 05:33N 39°53' W 075°09'0 0.0
2016-Jul-20 04:33N 39°53' W 075°09'0 0.0
2016-Jul-20 03:33N 39°53' W 075°09'0 0.0
2016-Jul-20 02:33N 39°53' W 075°09'0 0.0
2016-Jul-20 01:33N 39°53' W 075°09'0 0.0
2016-Jul-20 00:33N 39°53' W 075°09'0 0.0
2016-Jul-19 23:33N 39°53' W 075°09'0 0.0
2016-Jul-19 22:33N 39°53' W 075°09'0 0.0
2016-Jul-19 21:33N 39°53' W 075°09'0 0.0
2016-Jul-19 20:33N 39°53' W 075°09'0 0.0
2016-Jul-19 19:33N 39°53' W 075°09'0 0.0
2016-Jul-19 18:33N 39°53' W 075°09'0 0.0
2016-Jul-19 17:33N 39°53' W 075°09'0 0.0
2016-Jul-19 16:33N 39°53' W 075°09'0 0.0
2016-Jul-19 15:33N 39°53' W 075°09'0 0.0
2016-Jul-19 14:33N 39°53' W 075°09'0 0.0
2016-Jul-19 13:33N 39°53' W 075°09'0 0.0
2016-Jul-19 12:33N 39°53' W 075°09'0 0.0
2016-Jul-19 11:33N 39°53' W 075°09'0 0.0
2016-Jul-19 10:33N 39°53' W 075°09'0 0.0
2016-Jul-19 09:33N 39°53' W 075°09'0 0.0
2016-Jul-19 08:33N 39°53' W 075°09'0 0.0
2016-Jul-19 07:33N 39°53' W 075°09'0 0.0
2016-Jul-19 04:33N 39°53' W 075°09'0 0.0
2016-Jul-19 03:33N 39°53' W 075°09'0 0.0
2016-Jul-19 02:33N 39°53' W 075°09'0 0.0
2016-Jul-19 01:33N 39°53' W 075°09'0 0.0
2016-Jul-19 00:33N 39°53' W 075°09'0 0.1
2016-Jul-18 23:33N 39°53' W 075°09'8 7.9
2016-Jul-18 22:33N 39°51' W 075°19'7 6.9
2016-Jul-18 21:33N 39°47' W 075°27'8 7.7
2016-Jul-18 20:33N 39°40' W 075°32'7 6.6
2016-Jul-18 19:33N 39°34' W 075°33'7 7.3
2016-Jul-18 18:33N 39°27' W 075°33'8 8.1
2016-Jul-18 17:33N 39°20' W 075°26'9 8.5
2016-Jul-18 16:33N 39°14' W 075°18'9 9.0
2016-Jul-18 15:33N 39°06' W 075°12'12 9.1
2016-Jul-18 14:16N 38°56' W 075°06'7 9.6
2016-Jul-18 13:33N 38°50' W 075°02'9 9.1
2016-Jul-18 12:32N 38°50' W 074°50'9 9.6
2016-Jul-18 11:33N 38°58' W 074°43'10 9.9
2016-Jul-18 10:33N 39°05' W 074°34'11 9.6
2016-Jul-18 09:26N 39°13' W 074°25'9 9.5
2016-Jul-18 08:31N 39°20' W 074°18'9 9.6
2016-Jul-18 07:33N 39°27' W 074°10'10 9.6
2016-Jul-18 06:33N 39°35' W 074°05'10 9.7
2016-Jul-18 05:33N 39°44' W 073°59'10 9.7
2016-Jul-18 04:33N 39°54' W 073°57'10 9.8
2016-Jul-18 03:33N 40°03' W 073°55'2110.0
2016-Jul-18 01:30N 40°24' W 073°55'18 1.2
2016-Jul-17 11:11N 40°33' W 074°15'0 0.0
2016-Jul-17 10:26N 40°33' W 074°15'0 0.0
2016-Jul-17 09:28N 40°33' W 074°15'0 0.1
2016-Jul-17 08:33N 40°33' W 074°15'6 3.0
2016-Jul-17 06:33N 40°38' W 074°12'2 0.9
2016-Jul-17 04:33N 40°38' W 074°10'0 0.0
2016-Jul-17 03:33N 40°38' W 074°10'0 0.0
2016-Jul-17 02:33N 40°38' W 074°10'2 1.6
2016-Jul-17 01:33N 40°39' W 074°07'1 0.8
2016-Jul-17 00:33N 40°39' W 074°07'0 0.0
2016-Jul-16 23:33N 40°39' W 074°07'1 1.0
2016-Jul-16 22:33N 40°38' W 074°08'0 0.0
2016-Jul-16 21:17N 40°38' W 074°08'0 0.0
2016-Jul-16 20:33N 40°38' W 074°08'0 0.0
2016-Jul-16 19:30N 40°38' W 074°08'0 0.0
2016-Jul-16 18:32N 40°38' W 074°08'0 0.0
2016-Jul-16 17:33N 40°38' W 074°08'0 0.0
2016-Jul-16 16:33N 40°38' W 074°08'0 0.0
2016-Jul-16 15:34N 40°38' W 074°08'0 0.0
2016-Jul-16 14:33N 40°38' W 074°08'0 0.0
2016-Jul-16 13:33N 40°38' W 074°08'0 0.0
2016-Jul-16 12:32N 40°38' W 074°08'0 0.0
2016-Jul-16 11:33N 40°38' W 074°08'0 0.0
2016-Jul-16 10:33N 40°38' W 074°08'0 0.4
2016-Jul-16 09:33N 40°39' W 074°07'3 3.4
2016-Jul-16 08:33N 40°38' W 074°03'0 0.0
2016-Jul-16 07:33N 40°38' W 074°03'0 0.1
2016-Jul-16 06:33N 40°38' W 074°03'0 0.0
2016-Jul-16 04:33N 40°38' W 074°03'3 2.6
2016-Jul-16 03:33N 40°41' W 074°01'131 9.9
2016-Jul-15 14:19N 41°30' W 071°21'810.9
2016-Jul-15 13:33N 41°38' W 071°18'9 8.8
2016-Jul-15 12:31N 41°47' W 071°22'0 0.0
2016-Jul-15 11:33N 41°47' W 071°22'0 0.0
2016-Jul-15 10:33N 41°47' W 071°22'0 0.0
2016-Jul-15 09:33N 41°47' W 071°22'0 0.0
2016-Jul-15 08:32N 41°47' W 071°22'0 0.0
2016-Jul-15 06:28N 41°47' W 071°22'0 0.0
2016-Jul-15 03:05N 41°47' W 071°22'0 0.0
2016-Jul-15 02:26N 41°47' W 071°22'0 0.0
2016-Jul-15 01:33N 41°47' W 071°22'0 0.0
2016-Jul-15 00:33N 41°47' W 071°22'0 0.0
2016-Jul-14 23:34N 41°47' W 071°22'0 0.0
2016-Jul-14 22:33N 41°47' W 071°22'0 0.0
2016-Jul-14 21:33N 41°47' W 071°22'3 3.2
2016-Jul-14 20:33N 41°44' W 071°22'  
Track history (hours):
 
Tides and Currents Weather Stations Pressure Air Temp Water Temp Dewpoint Dewpoint Depression Visibility Wind Speed Wind Dir Waves Ship Positions

Austin Reinauer

Owner: REINAUER TRANSPORTATION CO, LP, STATEN ISLAND, NY. More information available from US FCC via Universal Licensing System and Coast Guard Vessel Documentation Center.

Last reported at 2016-Jul-24 16:33 UTC. Time now 2016-Jul-25 00:20 UTC.
Position N 40°44' W 073°58'.

Length 33 m; draft 6.7 m.

Type: . MMSI: 366739920.

Date/timePositionNaut miles runAvg speedWind from/ knotsBaromVisibWave heightAir tempDewpointWater temp
2016-Jul-24 16:33N 40°44' W 073°58'6 6.2
2016-Jul-24 15:33N 40°39' W 074°03'4 3.7
2016-Jul-24 14:32N 40°39' W 074°08'4 0.2
2016-Jul-23 18:31N 40°37' W 074°12'7 7.7
2016-Jul-23 17:34N 40°40' W 074°03'9 9.1
2016-Jul-23 16:32N 40°47' W 073°56'5 0.1
2016-Jul-21 23:06N 40°48' W 073°49'5 9.3
2016-Jul-21 22:32N 40°47' W 073°56'7 7.5
2016-Jul-21 21:33N 40°41' W 074°02'2 2.4
2016-Jul-21 20:33N 40°39' W 074°03'0 0.0
2016-Jul-21 19:33N 40°39' W 074°03'7 6.6
2016-Jul-21 18:33N 40°32' W 074°01'27 7.9
2016-Jul-21 15:09N 40°06' W 073°55'6 9.6
2016-Jul-21 14:33N 39°60' W 073°55'10 9.7
2016-Jul-21 13:33N 39°50' W 073°57'10 9.8
2016-Jul-21 12:33N 39°41' W 074°01'10 9.7
2016-Jul-21 11:34N 39°32' W 074°06'10 9.7
2016-Jul-21 10:33N 39°24' W 074°12'9 9.2
2016-Jul-21 09:33N 39°17' W 074°20'10 9.5
2016-Jul-21 08:33N 39°10' W 074°28'9 9.3
2016-Jul-21 07:33N 39°03' W 074°36'9 9.1
2016-Jul-21 06:33N 38°56' W 074°44'16 7.9
2016-Jul-21 04:33N 38°51' W 075°04'10 9.9
2016-Jul-21 03:33N 39°00' W 075°09'9 8.5
2016-Jul-21 02:33N 39°08' W 075°14'7 7.3
2016-Jul-21 01:34N 39°14' W 075°19'7 7.3
2016-Jul-21 00:33N 39°20' W 075°25'9 8.6
2016-Jul-20 23:33N 39°26' W 075°32'10 9.8
2016-Jul-20 22:33N 39°36' W 075°34'1010.4
2016-Jul-20 21:33N 39°46' W 075°29'1010.4
2016-Jul-20 20:33N 39°51' W 075°17'6 6.5
2016-Jul-20 19:33N 39°53' W 075°09'0 0.0
2016-Jul-20 18:33N 39°53' W 075°09'0 0.0
2016-Jul-20 17:33N 39°53' W 075°09'0 0.0
2016-Jul-20 16:33N 39°53' W 075°09'0 0.0
2016-Jul-20 15:33N 39°53' W 075°09'0 0.0
2016-Jul-20 14:33N 39°53' W 075°09'0 0.0
2016-Jul-20 13:33N 39°53' W 075°09'0 0.0
2016-Jul-20 12:33N 39°53' W 075°09'0 0.0
2016-Jul-20 11:33N 39°53' W 075°09'0 0.0
2016-Jul-20 10:33N 39°53' W 075°09'0 0.0
2016-Jul-20 09:34N 39°53' W 075°09'0 0.0
2016-Jul-20 08:33N 39°53' W 075°09'0 0.0
2016-Jul-20 07:33N 39°53' W 075°09'0 0.0
2016-Jul-20 06:34N 39°53' W 075°09'0 0.0
2016-Jul-20 05:33N 39°53' W 075°09'0 0.0
2016-Jul-20 04:33N 39°53' W 075°09'0 0.0
2016-Jul-20 03:33N 39°53' W 075°09'0 0.0
2016-Jul-20 02:33N 39°53' W 075°09'0 0.0
2016-Jul-20 01:33N 39°53' W 075°09'0 0.0
2016-Jul-20 00:33N 39°53' W 075°09'0 0.0
2016-Jul-19 23:33N 39°53' W 075°09'0 0.0
2016-Jul-19 22:33N 39°53' W 075°09'0 0.0
2016-Jul-19 21:33N 39°53' W 075°09'0 0.0
2016-Jul-19 20:33N 39°53' W 075°09'0 0.0
2016-Jul-19 19:33N 39°53' W 075°09'0 0.0
2016-Jul-19 18:33N 39°53' W 075°09'0 0.0
2016-Jul-19 17:33N 39°53' W 075°09'0 0.0
2016-Jul-19 16:33N 39°53' W 075°09'0 0.0
2016-Jul-19 15:33N 39°53' W 075°09'0 0.0
2016-Jul-19 14:33N 39°53' W 075°09'0 0.0
2016-Jul-19 13:33N 39°53' W 075°09'0 0.0
2016-Jul-19 12:33N 39°53' W 075°09'0 0.0
2016-Jul-19 11:33N 39°53' W 075°09'0 0.0
2016-Jul-19 10:33N 39°53' W 075°09'0 0.0
2016-Jul-19 09:33N 39°53' W 075°09'0 0.0
2016-Jul-19 08:33N 39°53' W 075°09'0 0.0
2016-Jul-19 07:33N 39°53' W 075°09'0 0.0
2016-Jul-19 04:33N 39°53' W 075°09'0 0.0
2016-Jul-19 03:33N 39°53' W 075°09'0 0.0
2016-Jul-19 02:33N 39°53' W 075°09'0 0.0
2016-Jul-19 01:33N 39°53' W 075°09'0 0.0
2016-Jul-19 00:33N 39°53' W 075°09'0 0.1
2016-Jul-18 23:33N 39°53' W 075°09'8 7.9
2016-Jul-18 22:33N 39°51' W 075°19'7 6.9
2016-Jul-18 21:33N 39°47' W 075°27'8 7.7
2016-Jul-18 20:33N 39°40' W 075°32'7 6.6
2016-Jul-18 19:33N 39°34' W 075°33'7 7.3
2016-Jul-18 18:33N 39°27' W 075°33'8 8.1
2016-Jul-18 17:33N 39°20' W 075°26'9 8.5
2016-Jul-18 16:33N 39°14' W 075°18'9 9.0
2016-Jul-18 15:33N 39°06' W 075°12'12 9.1
2016-Jul-18 14:16N 38°56' W 075°06'7 9.6
2016-Jul-18 13:33N 38°50' W 075°02'9 9.1
2016-Jul-18 12:32N 38°50' W 074°50'9 9.6
2016-Jul-18 11:33N 38°58' W 074°43'10 9.9
2016-Jul-18 10:33N 39°05' W 074°34'11 9.6
2016-Jul-18 09:26N 39°13' W 074°25'9 9.5
2016-Jul-18 08:31N 39°20' W 074°18'9 9.6
2016-Jul-18 07:33N 39°27' W 074°10'10 9.6
2016-Jul-18 06:33N 39°35' W 074°05'10 9.7
2016-Jul-18 05:33N 39°44' W 073°59'10 9.7
2016-Jul-18 04:33N 39°54' W 073°57'10 9.8
2016-Jul-18 03:33N 40°03' W 073°55'2110.0
2016-Jul-18 01:30N 40°24' W 073°55'18 1.2
2016-Jul-17 11:11N 40°33' W 074°15'0 0.0
2016-Jul-17 10:26N 40°33' W 074°15'0 0.0
2016-Jul-17 09:28N 40°33' W 074°15'0 0.1
2016-Jul-17 08:33N 40°33' W 074°15'6 3.0
2016-Jul-17 06:33N 40°38' W 074°12'2 0.9
2016-Jul-17 04:33N 40°38' W 074°10'0 0.0
2016-Jul-17 03:33N 40°38' W 074°10'0 0.0
2016-Jul-17 02:33N 40°38' W 074°10'2 1.6
2016-Jul-17 01:33N 40°39' W 074°07'1 0.8
2016-Jul-17 00:33N 40°39' W 074°07'0 0.0
2016-Jul-16 23:33N 40°39' W 074°07'1 1.0
2016-Jul-16 22:33N 40°38' W 074°08'0 0.0
2016-Jul-16 21:17N 40°38' W 074°08'0 0.0
2016-Jul-16 20:33N 40°38' W 074°08'0 0.0
2016-Jul-16 19:30N 40°38' W 074°08'0 0.0
2016-Jul-16 18:32N 40°38' W 074°08'0 0.0
2016-Jul-16 17:33N 40°38' W 074°08'0 0.0
2016-Jul-16 16:33N 40°38' W 074°08'0 0.0
2016-Jul-16 15:34N 40°38' W 074°08'0 0.0
2016-Jul-16 14:33N 40°38' W 074°08'0 0.0
2016-Jul-16 13:33N 40°38' W 074°08'0 0.0
2016-Jul-16 12:32N 40°38' W 074°08'0 0.0
2016-Jul-16 11:33N 40°38' W 074°08'0 0.0
2016-Jul-16 10:33N 40°38' W 074°08'0 0.4
2016-Jul-16 09:33N 40°39' W 074°07'3 3.4
2016-Jul-16 08:33N 40°38' W 074°03'0 0.0
2016-Jul-16 07:33N 40°38' W 074°03'0 0.1
2016-Jul-16 06:33N 40°38' W 074°03'0 0.0
2016-Jul-16 04:33N 40°38' W 074°03'3 2.6
2016-Jul-16 03:33N 40°41' W 074°01'131 9.9
2016-Jul-15 14:19N 41°30' W 071°21'810.9
2016-Jul-15 13:33N 41°38' W 071°18'9 8.8
2016-Jul-15 12:31N 41°47' W 071°22'0 0.0
2016-Jul-15 11:33N 41°47' W 071°22'0 0.0
2016-Jul-15 10:33N 41°47' W 071°22'0 0.0
2016-Jul-15 09:33N 41°47' W 071°22'0 0.0
2016-Jul-15 08:32N 41°47' W 071°22'0 0.0
2016-Jul-15 06:28N 41°47' W 071°22'0 0.0
2016-Jul-15 03:05N 41°47' W 071°22'0 0.0
2016-Jul-15 02:26N 41°47' W 071°22'0 0.0
2016-Jul-15 01:33N 41°47' W 071°22'0 0.0
2016-Jul-15 00:33N 41°47' W 071°22'0 0.0
2016-Jul-14 23:34N 41°47' W 071°22'0 0.0
2016-Jul-14 22:33N 41°47' W 071°22'0 0.0
2016-Jul-14 21:33N 41°47' W 071°22'3 3.2
2016-Jul-14 20:33N 41°44' W 071°22'  

Dump ship's entire track history